Time;durP1;ratioP1;P1;durP2;ratioP2;P2;SDS_P1;SDS_P2;PMS_P1;PMS_P2;Temp;Humidity;BMP_temperature;BMP_pressure;BME280_temperature;BME280_humidity;BME280_pressure;Samples;Min_cycle;Max_cycle;Signal;HPM_P1;HPM_P2
2023/03/18 00:00:52;;;;;;;47.72;39.30;;;;;;;1.93;100.00;101879.06;5056462;28;20042;-80
2023/03/18 00:03:21;;;;;;;92.88;61.45;;;;;;;1.87;100.00;101879.53;5051398;28;20102;-79
2023/03/18 00:05:48;;;;;;;60.13;48.60;;;;;;;1.98;100.00;101884.78;5058030;28;20048;-80
2023/03/18 00:08:22;;;;;;;56.65;45.88;;;;;;;1.86;100.00;101872.66;5049731;28;20046;-79
2023/03/18 00:10:51;;;;;;;57.28;46.33;;;;;;;1.87;100.00;101883.00;5051003;28;20045;-79
2023/03/18 00:13:18;;;;;;;57.40;47.17;;;;;;;1.85;100.00;101874.44;5048853;28;20046;-80
2023/03/18 00:15:45;;;;;;;273.75;143.88;;;;;;;1.86;100.00;101875.28;5049468;28;20113;-80
2023/03/18 00:18:13;;;;;;;87.45;57.60;;;;;;;1.84;100.00;101876.19;5050774;28;20084;-80
2023/03/18 00:20:42;;;;;;;56.67;42.78;;;;;;;1.84;100.00;101872.75;5051509;28;20098;-79
2023/03/18 00:23:09;;;;;;;51.50;42.70;;;;;;;1.82;100.00;101870.28;5053771;28;20049;-79
2023/03/18 00:25:36;;;;;;;54.28;43.45;;;;;;;1.82;100.00;101861.59;5047393;28;20549;-79
2023/03/18 00:28:03;;;;;;;85.43;58.75;;;;;;;1.91;100.00;101865.28;5050413;28;20049;-80
2023/03/18 00:30:30;;;;;;;55.42;44.80;;;;;;;1.87;100.00;101859.41;5053656;28;20053;-80
2023/03/18 00:32:57;;;;;;;91.00;59.83;;;;;;;1.81;100.00;101857.28;5051752;28;20087;-80
2023/03/18 00:35:26;;;;;;;54.55;44.05;;;;;;;1.74;100.00;101854.31;5056858;28;20493;-80
2023/03/18 00:37:56;;;;;;;73.82;51.92;;;;;;;1.86;100.00;101857.75;5059535;28;20045;-80
2023/03/18 00:40:28;;;;;;;55.03;45.17;;;;;;;1.88;100.00;101842.75;5066558;28;20048;-79
2023/03/18 00:43:06;;;;;;;55.17;45.05;;;;;;;1.80;100.00;101843.34;5047993;28;20057;-79
2023/03/18 00:45:34;;;;;;;51.17;41.40;;;;;;;1.67;100.00;101853.13;5052967;28;20075;-79
2023/03/18 00:48:00;;;;;;;51.42;41.72;;;;;;;1.72;100.00;101844.91;5046019;28;20045;-80
2023/03/18 00:50:28;;;;;;;51.75;43.20;;;;;;;1.72;100.00;101848.34;5054816;28;20122;-80
2023/03/18 00:52:56;;;;;;;50.25;40.10;;;;;;;1.70;100.00;101845.03;5050050;28;20144;-79
2023/03/18 00:55:23;;;;;;;47.60;39.22;;;;;;;1.69;100.00;101839.91;5050232;28;20131;-79
2023/03/18 00:57:50;;;;;;;57.63;47.90;;;;;;;1.53;100.00;101832.41;5053090;28;20080;-79
2023/03/18 01:00:18;;;;;;;49.45;41.88;;;;;;;1.67;100.00;101834.81;5057140;28;20052;-79
2023/03/18 01:02:48;;;;;;;50.22;43.33;;;;;;;1.53;100.00;101827.19;5047139;28;20064;-79
2023/03/18 01:05:16;;;;;;;48.58;40.38;;;;;;;1.63;100.00;101828.13;5058319;28;20048;-79
2023/03/18 01:07:43;;;;;;;50.88;42.85;;;;;;;1.37;100.00;101827.56;5054746;28;20524;-80
2023/03/18 01:10:13;;;;;;;377.25;173.70;;;;;;;1.41;100.00;101820.28;5056625;28;20091;-79
2023/03/18 01:12:41;;;;;;;165.07;85.15;;;;;;;1.52;100.00;101825.53;5057167;28;20045;-79
2023/03/18 01:15:09;;;;;;;50.72;40.42;;;;;;;1.72;100.00;101823.94;5054398;28;20136;-79
2023/03/18 01:17:36;;;;;;;50.97;40.83;;;;;;;1.52;100.00;101817.69;5060535;28;20128;-79
2023/03/18 01:20:03;;;;;;;672.67;286.63;;;;;;;1.58;100.00;101810.16;5060306;28;20055;-79
2023/03/18 01:22:30;;;;;;;297.15;115.00;;;;;;;1.57;100.00;101816.38;5052612;28;20053;-80
2023/03/18 01:24:57;;;;;;;257.90;106.88;;;;;;;1.69;100.00;101817.16;5052658;28;20145;-80
2023/03/18 01:27:25;;;;;;;153.75;76.28;;;;;;;1.81;100.00;101807.50;5050076;28;20049;-80
2023/03/18 01:29:52;;;;;;;538.50;236.38;;;;;;;1.61;100.00;101801.25;5050708;28;20495;-79
2023/03/18 01:32:19;;;;;;;284.00;102.35;;;;;;;1.70;100.00;101800.50;5053994;28;20048;-79
2023/03/18 01:34:46;;;;;;;231.48;88.35;;;;;;;1.60;100.00;101808.28;5055801;28;20049;-79
2023/03/18 01:37:12;;;;;;;67.95;45.85;;;;;;;1.71;100.00;101815.25;5054576;28;20075;-79
2023/03/18 01:39:40;;;;;;;50.88;42.22;;;;;;;1.68;100.00;101810.25;5057196;28;20057;-80
2023/03/18 01:42:07;;;;;;;47.58;38.85;;;;;;;1.56;100.00;101804.22;5050598;28;20141;-79
2023/03/18 01:44:35;;;;;;;46.72;40.95;;;;;;;1.63;100.00;101806.34;5057803;28;20126;-79
2023/03/18 01:47:02;;;;;;;45.63;40.25;;;;;;;1.44;100.00;101810.41;5054104;28;20048;-80
2023/03/18 01:49:32;;;;;;;44.40;38.53;;;;;;;1.59;100.00;101809.19;5059756;28;20113;-80
2023/03/18 01:52:11;;;;;;;100.20;56.15;;;;;;;1.71;100.00;101807.41;5051724;28;20110;-79
2023/03/18 01:54:42;;;;;;;46.72;39.38;;;;;;;1.69;100.00;101805.84;5052642;28;20056;-79
2023/03/18 01:57:09;;;;;;;44.67;36.30;;;;;;;1.54;100.00;101803.50;5051988;28;20076;-80
2023/03/18 01:59:41;;;;;;;43.65;37.80;;;;;;;1.53;100.00;101803.63;5048167;28;20419;-79
2023/03/18 02:02:10;;;;;;;53.03;43.72;;;;;;;1.56;100.00;101809.44;5050644;28;20057;-79
2023/03/18 02:04:44;;;;;;;54.30;44.25;;;;;;;1.50;100.00;101806.47;5064294;28;20045;-79
2023/03/18 02:07:16;;;;;;;55.38;45.22;;;;;;;1.55;100.00;101810.41;5050430;28;20533;-80
2023/03/18 02:09:43;;;;;;;53.28;43.53;;;;;;;1.54;100.00;101802.66;5051426;28;20591;-79
2023/03/18 02:12:13;;;;;;;51.40;42.90;;;;;;;1.66;100.00;101801.69;5053800;28;20057;-79
2023/03/18 02:14:41;;;;;;;64.00;48.50;;;;;;;1.59;100.00;101801.34;5052317;28;20075;-80
2023/03/18 02:17:13;;;;;;;51.00;41.60;;;;;;;1.46;100.00;101795.41;5057217;28;20498;-79
2023/03/18 02:19:50;;;;;;;55.72;44.83;;;;;;;1.57;100.00;101805.03;5054863;28;20445;-79
2023/03/18 02:22:24;;;;;;;59.15;45.38;;;;;;;1.67;100.00;101813.84;5056107;28;20068;-79
2023/03/18 02:25:01;;;;;;;55.72;45.53;;;;;;;1.52;100.00;101801.97;5048453;28;20096;-80
2023/03/18 02:27:32;;;;;;;68.78;48.75;;;;;;;1.67;100.00;101808.63;5050461;28;20045;-79
2023/03/18 02:30:02;;;;;;;75.38;49.42;;;;;;;1.62;100.00;101808.13;5053597;28;20049;-79
2023/03/18 02:32:31;;;;;;;48.22;41.70;;;;;;;1.74;100.00;101811.56;5052654;28;20053;-80
2023/03/18 02:35:01;;;;;;;48.22;41.13;;;;;;;1.69;100.00;101809.31;5058641;28;20045;-79
2023/03/18 02:37:28;;;;;;;50.03;39.83;;;;;;;1.66;100.00;101816.56;5054728;28;20041;-79
2023/03/18 02:39:55;;;;;;;46.85;38.50;;;;;;;1.72;100.00;101816.09;5053988;28;20071;-80
2023/03/18 02:42:30;;;;;;;48.28;41.75;;;;;;;1.56;100.00;101809.44;5054403;28;20053;-79
2023/03/18 02:44:59;;;;;;;47.38;38.90;;;;;;;1.70;100.00;101818.84;5056205;28;20130;-79
2023/03/18 02:47:28;;;;;;;49.20;39.75;;;;;;;1.71;100.00;101814.44;5054765;28;20153;-79
2023/03/18 02:49:55;;;;;;;58.40;45.10;;;;;;;1.73;100.00;101812.53;5055041;28;20045;-80
2023/03/18 02:52:22;;;;;;;49.13;42.65;;;;;;;1.60;100.00;101816.13;5054654;28;20057;-79
2023/03/18 02:54:48;;;;;;;49.08;39.65;;;;;;;1.51;100.00;101814.22;5052179;28;20106;-79
2023/03/18 02:57:15;;;;;;;54.92;43.47;;;;;;;1.59;100.00;101813.63;5048745;28;20049;-79
2023/03/18 02:59:43;;;;;;;54.63;45.95;;;;;;;1.67;100.00;101819.09;5052904;28;20435;-79
2023/03/18 03:02:10;;;;;;;60.97;47.67;;;;;;;1.60;100.00;101813.50;5055019;28;20091;-79
2023/03/18 03:04:37;;;;;;;57.28;42.90;;;;;;;1.56;100.00;101806.00;5054058;28;20067;-79
2023/03/18 03:07:03;;;;;;;53.70;42.58;;;;;;;1.58;100.00;101807.53;5057518;28;20110;-79
2023/03/18 03:09:30;;;;;;;51.55;41.58;;;;;;;1.38;100.00;101805.66;5049971;28;20466;-80
2023/03/18 03:11:57;;;;;;;51.08;39.65;;;;;;;1.40;100.00;101814.22;5052102;28;20068;-80
2023/03/18 03:14:24;;;;;;;46.70;36.90;;;;;;;1.44;100.00;101805.16;5050441;28;20060;-80
2023/03/18 03:16:52;;;;;;;47.55;40.00;;;;;;;1.60;100.00;101813.50;5055318;28;20095;-80
2023/03/18 03:19:19;;;;;;;51.30;41.85;;;;;;;1.31;100.00;101807.91;5056731;28;20045;-79
2023/03/18 03:21:46;;;;;;;47.85;39.78;;;;;;;1.49;100.00;101807.44;5054447;28;20567;-79
2023/03/18 03:24:13;;;;;;;49.75;40.13;;;;;;;1.47;100.00;101817.19;5054087;28;20055;-80
2023/03/18 03:26:39;;;;;;;53.00;44.90;;;;;;;1.32;100.00;101806.94;5052836;28;20045;-79
2023/03/18 03:29:06;;;;;;;51.53;41.25;;;;;;;1.53;100.00;101803.63;5053601;28;20042;-80
2023/03/18 03:31:33;;;;;;;48.70;39.90;;;;;;;1.51;100.00;101818.59;5052328;28;20049;-80
2023/03/18 03:34:01;;;;;;;48.10;41.42;;;;;;;1.36;100.00;101808.41;5055064;28;20049;-79
2023/03/18 03:36:28;;;;;;;54.95;43.15;;;;;;;1.34;100.00;101812.91;5049811;28;20045;-79
2023/03/18 03:38:55;;;;;;;51.80;41.40;;;;;;;1.30;100.00;101802.78;5054252;28;20049;-79
2023/03/18 03:41:22;;;;;;;50.30;38.70;;;;;;;1.41;100.00;101815.88;5051551;28;20053;-79
2023/03/18 03:43:49;;;;;;;53.22;38.85;;;;;;;1.36;100.00;101810.16;5056227;28;20045;-79
2023/03/18 03:46:16;;;;;;;50.42;38.65;;;;;;;1.42;100.00;101820.16;5054087;28;20045;-79
2023/03/18 03:48:43;;;;;;;49.75;40.50;;;;;;;1.45;100.00;101824.31;5049604;28;20049;-79
2023/03/18 03:51:11;;;;;;;49.75;39.20;;;;;;;1.37;100.00;101823.16;5051223;28;20057;-79
2023/03/18 03:53:38;;;;;;;51.85;41.15;;;;;;;1.45;100.00;101814.69;5056222;28;20057;-79
2023/03/18 03:56:06;;;;;;;49.22;41.17;;;;;;;1.50;100.00;101820.41;5048265;28;20057;-79
2023/03/18 03:58:33;;;;;;;49.28;41.95;;;;;;;1.43;100.00;101823.63;5051593;28;20053;-79
2023/03/18 04:01:00;;;;;;;54.10;40.17;;;;;;;1.38;100.00;101823.97;5043260;28;20037;-79
2023/03/18 04:03:27;;;;;;;51.15;43.53;;;;;;;1.07;100.00;101828.13;5052788;28;20061;-79
2023/03/18 04:05:53;;;;;;;54.13;40.95;;;;;;;1.30;100.00;101837.66;5056345;28;20506;-79
2023/03/18 04:08:22;;;;;;;54.75;40.28;;;;;;;1.26;100.00;101825.75;5047226;28;20041;-80
2023/03/18 04:10:48;;;;;;;51.28;40.90;;;;;;;1.29;100.00;101833.38;5055969;28;20049;-80
2023/03/18 04:13:15;;;;;;;50.03;42.13;;;;;;;1.33;100.00;101839.19;5054791;28;20053;-80
2023/03/18 04:15:42;;;;;;;49.67;41.90;;;;;;;1.15;100.00;101838.84;5049105;28;20049;-80
2023/03/18 04:18:09;;;;;;;50.17;42.33;;;;;;;1.25;100.00;101841.59;5048517;28;20052;-80
2023/03/18 04:20:36;;;;;;;49.33;38.90;;;;;;;1.17;100.00;101839.53;5053861;28;20072;-80
2023/03/18 04:23:06;;;;;;;54.60;41.40;;;;;;;1.26;100.00;101843.25;5051133;28;20131;-80
2023/03/18 04:25:35;;;;;;;48.17;38.20;;;;;;;1.27;100.00;101844.91;5043276;28;20486;-79
2023/03/18 04:28:02;;;;;;;50.45;41.83;;;;;;;1.35;100.00;101848.59;5054582;28;20417;-80
2023/03/18 04:30:29;;;;;;;51.15;39.25;;;;;;;1.37;100.00;101851.13;5048939;28;20049;-80
2023/03/18 04:32:56;;;;;;;62.28;48.40;;;;;;;1.27;100.00;101852.75;5051691;28;20521;-80
2023/03/18 04:35:23;;;;;;;60.38;46.35;;;;;;;1.26;100.00;101857.16;5056468;28;20103;-80
2023/03/18 04:37:50;;;;;;;63.97;45.08;;;;;;;1.30;100.00;101852.50;5053387;28;20411;-80
2023/03/18 04:40:18;;;;;;;85.90;61.67;;;;;;;1.34;100.00;101857.41;5049411;28;20049;-80
2023/03/18 04:42:47;;;;;;;79.93;57.40;;;;;;;1.28;100.00;101854.44;5046886;28;20540;-80
2023/03/18 04:45:15;;;;;;;58.03;44.55;;;;;;;1.37;100.00;101866.81;5050885;28;20055;-80
2023/03/18 04:47:43;;;;;;;50.00;39.95;;;;;;;1.22;100.00;101860.97;5051884;28;20112;-80
2023/03/18 04:50:11;;;;;;;48.70;39.33;;;;;;;1.34;100.00;101865.28;5046317;28;20111;-80
2023/03/18 04:52:38;;;;;;;50.17;39.47;;;;;;;1.22;100.00;101860.97;5050907;28;20045;-80
2023/03/18 04:55:05;;;;;;;54.08;40.50;;;;;;;1.10;100.00;101859.28;5047236;28;20134;-80
2023/03/18 04:57:34;;;;;;;48.08;39.10;;;;;;;1.36;100.00;101865.13;5049307;28;20061;-80
2023/03/18 05:00:03;;;;;;;54.28;43.47;;;;;;;1.37;100.00;101867.66;5054432;28;20041;-80
2023/03/18 05:02:30;;;;;;;45.50;38.38;;;;;;;1.26;100.00;101861.56;5051804;28;20059;-80
2023/03/18 05:04:57;;;;;;;46.50;37.30;;;;;;;1.30;100.00;101870.84;5052990;28;20064;-80
2023/03/18 05:07:23;;;;;;;49.45;37.83;;;;;;;1.35;100.00;101868.72;5046338;28;20057;-80
2023/03/18 05:09:50;;;;;;;52.78;41.90;;;;;;;1.54;100.00;101876.84;5049283;28;20053;-80
2023/03/18 05:12:17;;;;;;;50.42;38.97;;;;;;;1.40;100.00;101879.69;5051770;28;20057;-80
2023/03/18 05:14:44;;;;;;;47.65;39.05;;;;;;;1.58;100.00;101878.25;5050116;28;20110;-80
2023/03/18 05:17:15;;;;;;;46.90;39.83;;;;;;;1.58;100.00;101882.66;5054040;28;20045;-80
2023/03/18 05:19:43;;;;;;;46.08;39.80;;;;;;;1.65;100.00;101888.25;5046158;28;20104;-79
2023/03/18 05:22:11;;;;;;;43.35;37.13;;;;;;;1.68;100.00;101885.41;5050197;28;20107;-80
2023/03/18 05:24:38;;;;;;;44.13;38.53;;;;;;;1.61;100.00;101892.91;5049793;28;20124;-80
2023/03/18 05:27:05;;;;;;;50.17;38.70;;;;;;;1.53;100.00;101897.88;5047088;28;20052;-80
2023/03/18 05:29:32;;;;;;;44.85;36.35;;;;;;;1.60;100.00;101897.31;5051343;28;20049;-80
2023/03/18 05:31:58;;;;;;;45.60;37.63;;;;;;;1.68;100.00;101901.94;5053794;28;20133;-79
2023/03/18 05:34:27;;;;;;;47.92;37.75;;;;;;;1.64;100.00;101905.75;5054706;28;20054;-80
2023/03/18 05:36:53;;;;;;;54.60;40.95;;;;;;;1.77;100.00;101908.25;5048750;28;20476;-80
2023/03/18 05:39:20;;;;;;;68.68;56.58;;;;;;;1.77;100.00;101909.09;5049750;28;20470;-80
2023/03/18 05:41:47;;;;;;;62.38;48.97;;;;;;;1.98;100.00;101911.81;5053764;28;20522;-80
2023/03/18 05:44:13;;;;;;;50.47;42.08;;;;;;;2.10;100.00;101919.66;5051887;28;20052;-80
2023/03/18 05:46:40;;;;;;;49.35;39.60;;;;;;;1.95;100.00;101912.06;5051254;28;20071;-80
2023/03/18 05:49:07;;;;;;;55.25;44.45;;;;;;;2.20;100.00;101931.91;5053065;28;20049;-80
2023/03/18 05:51:36;;;;;;;44.90;38.58;;;;;;;2.59;100.00;101939.34;5053719;28;20530;-80
2023/03/18 05:54:04;;;;;;;32.95;29.65;;;;;;;3.08;100.00;101933.53;5053879;28;20049;-80
2023/03/18 05:56:31;;;;;;;27.67;24.73;;;;;;;2.90;100.00;101935.06;5060911;28;20128;-80
2023/03/18 05:58:58;;;;;;;28.25;25.70;;;;;;;2.70;100.00;101927.03;5053393;28;20045;-80
2023/03/18 06:01:25;;;;;;;31.60;28.20;;;;;;;2.65;100.00;101923.13;5058831;28;20598;-80
2023/03/18 06:03:52;;;;;;;30.77;26.00;;;;;;;2.73;100.00;101916.28;5062491;28;20052;-80
2023/03/18 06:06:19;;;;;;;32.47;26.98;;;;;;;2.73;100.00;101903.16;5059041;28;20052;-80
2023/03/18 06:08:47;;;;;;;28.08;25.50;;;;;;;2.66;100.00;101895.91;5059182;28;20098;-80
2023/03/18 06:11:14;;;;;;;26.73;24.15;;;;;;;2.56;100.00;101895.84;5059202;28;20526;-80
2023/03/18 06:13:42;;;;;;;28.00;25.30;;;;;;;2.80;100.00;101908.75;5052185;28;20049;-80
2023/03/18 06:16:08;;;;;;;31.20;27.95;;;;;;;2.86;100.00;101897.75;5060489;28;20044;-80
2023/03/18 06:18:35;;;;;;;32.28;28.77;;;;;;;2.86;100.00;101892.50;5062230;28;20559;-80
2023/03/18 06:21:02;;;;;;;34.30;30.75;;;;;;;2.91;100.00;101900.00;5060365;28;20063;-80
2023/03/18 06:23:29;;;;;;;33.50;29.88;;;;;;;3.02;100.00;101901.72;5058845;28;20099;-80
2023/03/18 06:25:57;;;;;;;33.10;29.67;;;;;;;3.01;100.00;101906.13;5054980;28;20048;-80
2023/03/18 06:28:24;;;;;;;32.30;29.13;;;;;;;3.12;100.00;101913.13;5060773;28;20087;-80
2023/03/18 06:30:51;;;;;;;33.17;30.00;;;;;;;3.04;100.00;101900.63;5047818;28;20045;-80
2023/03/18 06:33:17;;;;;;;34.08;30.48;;;;;;;3.28;100.00;101904.78;5059073;28;20084;-80
2023/03/18 06:35:44;;;;;;;34.08;30.70;;;;;;;3.39;100.00;101899.47;5060479;28;20048;-80
2023/03/18 06:38:13;;;;;;;37.25;33.25;;;;;;;3.38;100.00;101897.78;5054025;28;20045;-80
2023/03/18 06:40:40;;;;;;;37.55;33.85;;;;;;;3.40;100.00;101898.50;5056934;28;20053;-80
2023/03/18 06:43:08;;;;;;;35.72;32.60;;;;;;;3.42;100.00;101900.03;5057390;28;20105;-80
2023/03/18 06:45:35;;;;;;;35.53;32.10;;;;;;;3.77;100.00;101904.06;5054188;28;20049;-81
2023/03/18 06:48:02;;;;;;;36.30;32.80;;;;;;;3.80;100.00;101909.06;5063249;28;20056;-80
2023/03/18 06:50:29;;;;;;;36.65;33.13;;;;;;;4.24;100.00;101906.97;5056152;28;20068;-80
2023/03/18 06:52:56;;;;;;;34.65;31.25;;;;;;;4.16;100.00;101909.44;5063729;28;20052;-80
2023/03/18 06:55:23;;;;;;;35.67;32.67;;;;;;;4.48;100.00;101919.75;5065982;28;20057;-80
2023/03/18 06:57:51;;;;;;;34.45;31.67;;;;;;;4.29;100.00;101917.09;5067388;28;20112;-80
2023/03/18 07:00:20;;;;;;;29.52;27.02;;;;;;;4.08;100.00;101915.38;5057997;28;20055;-80
2023/03/18 07:02:47;;;;;;;26.15;24.35;;;;;;;4.99;100.00;101913.41;5060576;28;20514;-80
2023/03/18 07:05:14;;;;;;;21.13;19.73;;;;;;;4.54;100.00;101908.69;5062703;28;20418;-80
2023/03/18 07:07:41;;;;;;;24.77;22.75;;;;;;;5.65;100.00;101909.91;5054886;28;20049;-80
2023/03/18 07:10:11;;;;;;;23.10;21.55;;;;;;;6.57;100.00;101902.94;5064885;28;20079;-80
2023/03/18 07:12:39;;;;;;;23.48;21.38;;;;;;;6.89;100.00;101902.38;5058555;28;20071;-80
2023/03/18 07:15:06;;;;;;;22.75;21.05;;;;;;;7.10;100.00;101896.75;5051841;28;20063;-80
2023/03/18 07:17:36;;;;;;;21.98;20.27;;;;;;;7.51;100.00;101891.72;5062520;28;20128;-80
2023/03/18 07:20:04;;;;;;;21.42;19.95;;;;;;;7.38;100.00;101891.31;5061583;28;20041;-81
2023/03/18 07:22:31;;;;;;;20.75;18.73;;;;;;;7.98;100.00;101897.38;5056943;28;20060;-80
2023/03/18 07:24:58;;;;;;;20.13;18.40;;;;;;;7.48;100.00;101892.88;5060103;28;20049;-81
2023/03/18 07:27:25;;;;;;;19.58;17.92;;;;;;;7.80;100.00;101894.00;5055965;28;20068;-80
2023/03/18 07:29:52;;;;;;;20.48;18.88;;;;;;;7.59;100.00;101897.03;5057413;28;20052;-80
2023/03/18 07:32:19;;;;;;;20.08;18.30;;;;;;;7.66;100.00;101897.25;5067529;28;20085;-80
2023/03/18 07:34:47;;;;;;;19.02;17.23;;;;;;;7.84;100.00;101881.28;5067287;28;20041;-80
2023/03/18 07:37:15;;;;;;;19.80;18.13;;;;;;;8.13;100.00;101892.31;5058729;28;20046;-80
2023/03/18 07:39:43;;;;;;;21.38;19.65;;;;;;;8.13;100.00;101892.31;5057818;28;20053;-80
2023/03/18 07:42:10;;;;;;;20.45;18.67;;;;;;;8.20;100.00;101903.06;5059041;28;20078;-80
2023/03/18 07:44:36;;;;;;;20.40;18.30;;;;;;;7.98;100.00;101896.56;5065700;28;20049;-80
2023/03/18 07:47:04;;;;;;;21.60;19.70;;;;;;;8.00;93.08;101895.41;5057770;28;20052;-81
2023/03/18 07:49:31;;;;;;;20.77;19.05;;;;;;;8.43;92.74;101892.75;5063772;28;20098;-81
2023/03/18 07:52:00;;;;;;;20.73;19.33;;;;;;;8.34;95.57;101886.56;5064780;28;20068;-81
2023/03/18 07:54:27;;;;;;;22.65;20.55;;;;;;;8.20;94.86;101897.78;5066083;28;20117;-80
2023/03/18 07:56:54;;;;;;;23.05;21.08;;;;;;;8.10;93.55;101900.56;5065653;28;20075;-80
2023/03/18 07:59:21;;;;;;;21.20;19.17;;;;;;;8.65;94.70;101908.00;5069656;28;20049;-81
2023/03/18 08:01:47;;;;;;;21.48;19.67;;;;;;;9.21;91.63;101900.22;5065886;28;20040;-81
2023/03/18 08:04:15;;;;;;;21.17;19.40;;;;;;;9.45;99.61;101903.81;5068970;28;20706;-80
2023/03/18 08:06:42;;;;;;;22.00;19.90;;;;;;;9.35;95.45;101906.66;5059792;28;20106;-80
2023/03/18 08:09:11;;;;;;;23.33;21.33;;;;;;;9.27;80.91;101911.97;5065953;28;20064;-80
2023/03/18 08:11:37;;;;;;;20.83;19.13;;;;;;;9.30;84.01;101909.81;5061551;28;20049;-80
2023/03/18 08:14:04;;;;;;;21.27;19.60;;;;;;;9.39;89.14;101913.28;5064237;28;20045;-81
2023/03/18 08:16:31;;;;;;;22.23;20.42;;;;;;;10.07;85.59;101903.91;5061990;28;20468;-80
2023/03/18 08:18:58;;;;;;;21.35;19.55;;;;;;;10.38;82.16;101911.91;5064587;28;20115;-81
2023/03/18 08:21:24;;;;;;;20.35;18.63;;;;;;;10.68;78.48;101910.22;5064137;28;20049;-80
2023/03/18 08:23:51;;;;;;;20.33;18.52;;;;;;;10.43;73.75;101908.72;5065021;28;20063;-80
2023/03/18 08:26:19;;;;;;;21.85;19.92;;;;;;;9.82;74.59;101903.19;5059372;28;20049;-80
2023/03/18 08:28:46;;;;;;;23.08;20.80;;;;;;;10.04;71.90;101907.72;5058736;28;20064;-80
2023/03/18 08:31:14;;;;;;;20.73;18.92;;;;;;;10.20;76.64;101906.03;5061756;28;20048;-81
2023/03/18 08:33:42;;;;;;;22.05;20.25;;;;;;;10.58;67.77;101898.16;5066220;28;20045;-80
2023/03/18 08:36:09;;;;;;;21.38;19.77;;;;;;;10.78;71.72;101907.31;5057907;28;20515;-80
2023/03/18 08:38:36;;;;;;;20.90;19.23;;;;;;;11.25;74.11;101900.91;5064061;28;20044;-81
2023/03/18 08:41:02;;;;;;;22.55;20.50;;;;;;;11.21;75.96;101896.97;5054551;28;20478;-81
2023/03/18 08:43:32;;;;;;;20.17;18.58;;;;;;;11.42;69.79;101898.91;5065158;28;20041;-81
2023/03/18 08:45:58;;;;;;;20.73;18.85;;;;;;;11.60;64.50;101891.38;5066302;28;20048;-81
2023/03/18 08:48:25;;;;;;;19.95;18.17;;;;;;;11.76;72.56;101894.88;5063518;28;20075;-81
2023/03/18 08:51:07;;;;;;;21.70;20.02;;;;;;;10.45;68.52;101901.41;5066067;28;20068;-81
2023/03/18 08:53:34;;;;;;;21.73;19.83;;;;;;;11.42;64.00;101896.25;5068439;28;20071;-82
2023/03/18 08:56:04;;;;;;;21.25;19.52;;;;;;;11.26;60.36;101896.44;5057554;28;20069;-82
2023/03/18 08:58:33;;;;;;;23.00;20.90;;;;;;;11.25;60.22;101892.94;5057356;28;20056;-82
2023/03/18 09:01:02;;;;;;;23.13;21.08;;;;;;;12.09;60.73;101898.78;5062190;28;20045;-84
2023/03/18 09:03:29;;;;;;;23.38;21.58;;;;;;;11.79;62.13;101890.00;5064724;28;20053;-82
2023/03/18 09:05:56;;;;;;;22.33;20.33;;;;;;;12.50;60.42;101898.22;5065208;28;20075;-82
2023/03/18 09:08:24;;;;;;;21.65;20.05;;;;;;;11.16;53.03;101891.34;5057901;28;20064;-82
2023/03/18 09:10:57;;;;;;;21.70;19.90;;;;;;;12.66;58.49;101897.13;5061788;28;20068;-82
2023/03/18 09:13:24;;;;;;;21.88;19.70;;;;;;;13.33;58.85;101890.53;5063787;28;20549;-82
2023/03/18 09:15:53;;;;;;;21.85;20.05;;;;;;;12.82;56.83;101888.06;5058014;28;20052;-82
2023/03/18 09:18:21;;;;;;;22.70;20.80;;;;;;;11.83;59.65;101885.13;5063730;28;20049;-83
2023/03/18 09:20:49;;;;;;;21.98;19.90;;;;;;;12.08;56.68;101888.34;5006514;28;20057;-83
2023/03/18 09:23:17;;;;;;;21.90;19.73;;;;;;;12.37;54.62;101879.41;5080385;28;20049;-83
2023/03/18 09:25:45;;;;;;;20.98;19.08;;;;;;;12.41;61.33;101878.06;5064144;28;20052;-83
2023/03/18 09:28:13;;;;;;;22.05;19.77;;;;;;;13.87;54.56;101873.75;5059541;28;20060;-83
2023/03/18 09:30:40;;;;;;;24.52;22.50;;;;;;;14.17;55.95;101882.28;5064956;28;20330;-83
2023/03/18 09:33:10;;;;;;;24.80;22.80;;;;;;;13.59;52.39;101873.84;5070525;28;20045;-83
2023/03/18 09:35:37;;;;;;;22.63;20.83;;;;;;;12.88;47.08;101873.13;5072316;28;20068;-83
2023/03/18 09:38:05;;;;;;;22.83;20.73;;;;;;;13.19;52.06;101873.59;5066188;28;20422;-83
2023/03/18 09:40:34;;;;;;;24.20;22.30;;;;;;;13.35;55.04;101874.31;5070324;28;20121;-83
2023/03/18 09:43:14;;;;;;;23.48;21.38;;;;;;;12.51;51.45;101872.41;5060136;28;20049;-83
2023/03/18 09:45:53;;;;;;;23.98;21.58;;;;;;;13.39;50.34;101878.25;5062365;28;20049;-83
2023/03/18 09:48:44;;;;;;;23.65;21.42;;;;;;;14.43;50.00;101875.34;5066921;28;20052;-84
2023/03/18 09:51:24;;;;;;;24.70;22.70;;;;;;;15.41;45.51;101867.53;5069229;28;20068;-83
2023/03/18 09:53:56;;;;;;;27.02;24.67;;;;;;;15.51;49.78;101859.84;5069471;28;20071;-83
2023/03/18 09:56:27;;;;;;;26.45;23.83;;;;;;;16.16;51.04;101872.41;5064230;28;20152;-83
2023/03/18 09:58:59;;;;;;;25.17;22.98;;;;;;;14.32;43.81;101866.09;5068608;28;20041;-84
2023/03/18 10:01:28;;;;;;;24.50;22.20;;;;;;;14.27;45.75;101873.06;5066936;28;20069;-84
2023/03/18 10:04:02;;;;;;;28.60;26.17;;;;;;;15.10;46.47;101863.66;5074729;28;20052;-83
2023/03/18 10:06:29;;;;;;;23.50;21.45;;;;;;;15.42;43.71;101852.28;5062803;28;20045;-84
2023/03/18 10:09:06;;;;;;;23.10;21.00;;;;;;;15.35;45.49;101858.47;5069104;28;20045;-83
2023/03/18 10:11:37;;;;;;;24.75;22.75;;;;;;;14.94;44.24;101857.91;5065716;28;20076;-83
2023/03/18 10:14:20;;;;;;;27.08;24.88;;;;;;;12.82;55.13;101845.41;5059507;28;20045;-83
2023/03/18 10:17:03;;;;;;;27.45;25.25;;;;;;;12.67;60.95;101852.66;5058331;28;20045;-83
2023/03/18 10:19:31;;;;;;;28.90;26.60;;;;;;;13.20;43.46;101845.06;5060427;28;20075;-83
2023/03/18 10:22:11;;;;;;;28.35;25.75;;;;;;;13.41;54.92;101842.34;5059235;28;20055;-83
2023/03/18 10:24:42;;;;;;;24.60;22.48;;;;;;;16.01;47.16;101832.50;5063307;28;20079;-83
2023/03/18 10:27:17;;;;;;;25.98;23.77;;;;;;;13.53;46.96;101839.94;5062631;28;20069;-84
2023/03/18 10:29:49;;;;;;;24.85;22.65;;;;;;;13.06;58.27;101838.78;5060757;28;20057;-84
2023/03/18 10:32:28;;;;;;;27.88;25.70;;;;;;;15.15;47.43;101824.75;5056336;28;20052;-83
2023/03/18 10:35:07;;;;;;;26.23;23.77;;;;;;;13.72;43.06;101833.03;5063652;28;20038;-83
2023/03/18 10:37:46;;;;;;;24.10;21.80;;;;;;;14.97;47.96;101828.06;5057849;28;20052;-83
2023/03/18 10:40:16;;;;;;;26.52;23.90;;;;;;;13.95;41.08;101833.53;5062290;28;20057;-83
2023/03/18 10:42:44;;;;;;;25.17;22.90;;;;;;;14.03;45.42;101821.00;5063846;28;20071;-83
2023/03/18 10:45:22;;;;;;;23.77;21.58;;;;;;;14.03;47.17;101823.69;5060838;28;20567;-83
2023/03/18 10:47:56;;;;;;;26.63;23.98;;;;;;;14.44;42.70;101816.34;5061594;28;20078;-83
2023/03/18 10:50:32;;;;;;;24.63;22.35;;;;;;;15.74;40.79;101797.00;5063814;28;20080;-83
2023/03/18 10:53:04;;;;;;;25.63;23.33;;;;;;;16.15;45.51;101809.91;5058483;28;20060;-83
2023/03/18 10:55:36;;;;;;;25.90;23.25;;;;;;;15.33;42.65;101803.50;5063265;28;20045;-83
2023/03/18 10:58:14;;;;;;;25.80;23.60;;;;;;;15.02;43.20;101798.84;5059872;28;20060;-83
2023/03/18 11:00:41;;;;;;;26.63;24.33;;;;;;;13.60;52.28;101805.25;5058641;28;20073;-82
2023/03/18 11:03:18;;;;;;;24.58;22.52;;;;;;;13.83;52.35;101802.25;5059392;28;20076;-83
2023/03/18 11:05:47;;;;;;;26.88;24.35;;;;;;;15.43;44.52;101785.16;5060174;28;20049;-83
2023/03/18 11:08:31;;;;;;;26.48;23.83;;;;;;;15.61;44.99;101791.66;5061075;28;20049;-83
2023/03/18 11:10:58;;;;;;;27.55;25.25;;;;;;;14.67;45.68;101801.75;5063563;28;20053;-83
2023/03/18 11:13:26;;;;;;;24.90;22.77;;;;;;;15.24;46.04;101794.06;5063115;28;20049;-83
2023/03/18 11:15:57;;;;;;;25.13;22.63;;;;;;;16.33;44.36;101792.28;5068308;28;20457;-82